createdAt,value
2022-12-31T00:01:28.019Z,11.00
2022-12-31T00:03:55.810Z,11.27
2022-12-31T00:06:33.756Z,10.35
2022-12-31T00:09:03.606Z,11.27
2022-12-31T00:11:31.066Z,13.25
2022-12-31T00:13:58.366Z,12.23
2022-12-31T00:16:30.564Z,11.70
2022-12-31T00:18:59.375Z,12.38
2022-12-31T00:21:28.490Z,12.05
2022-12-31T00:23:55.340Z,12.65
2022-12-31T00:26:27.051Z,12.80
2022-12-31T00:28:55.251Z,12.93
2022-12-31T00:31:24.439Z,12.18
2022-12-31T00:33:51.843Z,11.23
2022-12-31T00:36:27.193Z,12.98
2022-12-31T00:38:55.553Z,11.65
2022-12-31T00:41:23.727Z,12.57
2022-12-31T00:43:50.766Z,11.50
2022-12-31T00:46:17.997Z,11.77
2022-12-31T00:48:44.889Z,12.57
2022-12-31T00:51:14.473Z,12.57
2022-12-31T00:53:41.542Z,12.70
2022-12-31T00:56:14.046Z,11.50
2022-12-31T01:01:17.972Z,11.95
2022-12-31T01:03:45.968Z,11.55
2022-12-31T01:06:12.879Z,13.10
2022-12-31T01:08:39.470Z,12.15
2022-12-31T01:11:18.992Z,11.63
2022-12-31T01:14:06.749Z,11.90
2022-12-31T01:16:37.567Z,12.18
2022-12-31T01:19:09.183Z,12.05
2022-12-31T01:21:38.583Z,11.77
2022-12-31T01:24:05.969Z,11.05
2022-12-31T01:26:32.640Z,12.52
2022-12-31T01:28:59.450Z,11.55
2022-12-31T01:31:26.178Z,11.00
2022-12-31T01:33:53.255Z,12.05
2022-12-31T01:36:26.211Z,11.02
2022-12-31T01:38:54.977Z,12.65
2022-12-31T01:41:24.997Z,12.13
2022-12-31T01:43:57.194Z,11.35
2022-12-31T01:46:37.216Z,11.82
2022-12-31T01:49:19.435Z,11.30
2022-12-31T01:51:57.563Z,12.45
2022-12-31T01:54:27.296Z,11.25
2022-12-31T01:56:55.391Z,12.90
2022-12-31T01:59:24.544Z,12.00
2022-12-31T02:01:54.546Z,9.82
2022-12-31T02:04:24.280Z,11.35
2022-12-31T02:06:56.325Z,10.90
2022-12-31T02:09:23.186Z,11.45
2022-12-31T02:11:49.777Z,13.50
2022-12-31T02:14:24.270Z,12.30
2022-12-31T02:17:16.327Z,12.43
2022-12-31T02:20:44.384Z,13.47
2022-12-31T02:24:05.077Z,12.65
2022-12-31T02:26:51.254Z,11.57
2022-12-31T02:30:07.242Z,11.90
2022-12-31T02:33:18.368Z,12.00
2022-12-31T02:36:09.958Z,12.38
2022-12-31T02:38:41.825Z,12.70
2022-12-31T02:41:36.868Z,12.63
2022-12-31T02:44:34.251Z,11.55
2022-12-31T02:47:25.555Z,12.35
2022-12-31T02:50:25.143Z,11.90
2022-12-31T02:53:37.926Z,13.48
2022-12-31T02:56:13.665Z,11.85
2022-12-31T02:59:24.986Z,11.95
2022-12-31T03:02:16.013Z,12.38
2022-12-31T03:04:56.045Z,10.95
2022-12-31T03:07:31.711Z,11.52
2022-12-31T03:09:59.462Z,9.18
2022-12-31T03:12:47.703Z,9.98
2022-12-31T03:15:40.390Z,9.88
2022-12-31T03:18:15.856Z,10.52
2022-12-31T03:21:06.813Z,9.98
2022-12-31T03:23:39.154Z,12.18
2022-12-31T03:26:10.681Z,10.88
2022-12-31T03:28:39.847Z,11.18
2022-12-31T03:31:06.651Z,12.93
2022-12-31T03:33:37.000Z,11.70
2022-12-31T03:36:10.017Z,12.52
2022-12-31T03:38:37.009Z,13.55
2022-12-31T03:41:03.819Z,12.63
2022-12-31T03:43:30.382Z,12.48
2022-12-31T03:45:59.815Z,13.27
2022-12-31T03:48:26.557Z,12.52
2022-12-31T03:50:53.154Z,12.18
2022-12-31T03:53:19.861Z,12.75
2022-12-31T03:55:51.849Z,11.77
2022-12-31T03:58:18.414Z,12.98
2022-12-31T04:00:45.123Z,11.40
2022-12-31T04:03:11.743Z,12.73
2022-12-31T04:05:38.353Z,12.13
2022-12-31T04:08:05.092Z,12.48
2022-12-31T04:10:31.656Z,12.85
2022-12-31T04:13:00.261Z,11.93
2022-12-31T04:15:26.855Z,11.48
2022-12-31T04:17:53.425Z,11.93
2022-12-31T04:20:19.998Z,11.85
2022-12-31T04:22:46.622Z,12.65
2022-12-31T04:25:13.375Z,11.52
2022-12-31T04:27:43.392Z,11.73
2022-12-31T04:30:11.534Z,10.52
2022-12-31T04:32:38.159Z,10.93
2022-12-31T04:35:05.491Z,10.52
2022-12-31T04:37:32.063Z,9.98
2022-12-31T04:40:05.134Z,8.77
2022-12-31T04:42:32.750Z,9.82
2022-12-31T04:44:59.333Z,8.98
2022-12-31T04:47:25.883Z,10.10
2022-12-31T04:49:52.514Z,10.55
2022-12-31T04:52:19.159Z,10.73
2022-12-31T04:54:45.719Z,9.82
2022-12-31T04:57:12.370Z,10.98
2022-12-31T04:59:38.917Z,11.18
2022-12-31T05:02:05.593Z,12.90
2022-12-31T05:04:32.428Z,10.65
2022-12-31T05:06:59.015Z,11.18
2022-12-31T05:09:27.496Z,10.93
2022-12-31T05:11:54.341Z,11.68
2022-12-31T05:14:20.915Z,11.60
2022-12-31T05:16:47.563Z,11.18
2022-12-31T05:19:14.202Z,11.60
2022-12-31T05:21:40.767Z,13.02
2022-12-31T05:24:07.965Z,13.60
2022-12-31T05:26:35.136Z,14.00
2022-12-31T05:29:01.742Z,13.77
2022-12-31T05:31:28.501Z,13.43
2022-12-31T05:33:55.101Z,11.82
2022-12-31T05:36:21.694Z,14.40
2022-12-31T05:38:48.341Z,14.00
2022-12-31T05:41:14.922Z,15.40
2022-12-31T05:43:41.487Z,14.05
2022-12-31T05:46:08.446Z,15.75
2022-12-31T05:48:35.058Z,14.77
2022-12-31T05:51:01.752Z,16.17
2022-12-31T05:53:28.295Z,16.20
2022-12-31T05:55:54.923Z,36.90
2022-12-31T05:58:21.491Z,585.25
2022-12-31T06:00:48.087Z,476.48
2022-12-31T06:03:14.775Z,397.65
2022-12-31T06:05:44.315Z,79.78
2022-12-31T06:08:12.146Z,136.52
2022-12-31T06:10:39.680Z,25.25
2022-12-31T06:13:06.381Z,18.70
2022-12-31T06:15:33.024Z,52.90
2022-12-31T06:17:59.886Z,35.63
2022-12-31T06:20:26.477Z,40.75
2022-12-31T06:22:53.306Z,36.58
2022-12-31T06:25:20.020Z,39.25
2022-12-31T06:27:46.603Z,26.80
2022-12-31T06:30:13.926Z,27.50
2022-12-31T06:32:40.801Z,25.33
2022-12-31T06:35:07.941Z,25.85
2022-12-31T06:37:34.524Z,29.50
2022-12-31T06:40:01.484Z,26.60
2022-12-31T06:42:30.864Z,21.50
2022-12-31T06:44:58.490Z,20.45
2022-12-31T06:47:25.839Z,19.75
2022-12-31T06:49:53.149Z,18.23
2022-12-31T06:52:19.893Z,21.77
2022-12-31T06:54:47.161Z,18.13
2022-12-31T06:57:14.468Z,24.85
2022-12-31T06:59:41.507Z,18.58
2022-12-31T07:02:41.098Z,18.70
2022-12-31T07:05:42.018Z,17.83
2022-12-31T07:08:55.926Z,18.48
2022-12-31T07:11:26.755Z,17.08
2022-12-31T07:14:28.951Z,17.88
2022-12-31T07:17:36.745Z,20.35
2022-12-31T07:20:21.459Z,25.15
2022-12-31T07:22:48.572Z,20.73
2022-12-31T07:25:17.402Z,41.13
2022-12-31T07:28:37.330Z,56.42
2022-12-31T07:31:22.033Z,25.25
2022-12-31T07:34:07.273Z,22.17
2022-12-31T07:37:17.676Z,19.15
2022-12-31T07:40:24.800Z,20.02
2022-12-31T07:43:07.573Z,19.50
2022-12-31T07:48:27.367Z,16.73
2022-12-31T07:50:57.609Z,14.75
2022-12-31T07:53:24.925Z,15.50
2022-12-31T07:56:01.074Z,15.82
2022-12-31T07:58:49.213Z,13.55
2022-12-31T08:01:22.027Z,14.25
2022-12-31T08:04:46.930Z,16.75
2022-12-31T08:07:26.497Z,19.02
2022-12-31T08:10:36.081Z,18.13
2022-12-31T08:13:05.261Z,19.00
2022-12-31T08:15:32.232Z,17.35
2022-12-31T08:17:59.233Z,16.55
2022-12-31T08:20:27.114Z,16.80
2022-12-31T08:23:09.567Z,15.98
2022-12-31T08:26:04.284Z,14.88
2022-12-31T08:29:04.778Z,15.50
2022-12-31T08:32:02.776Z,16.35
2022-12-31T08:35:06.103Z,18.13
2022-12-31T08:38:01.596Z,20.00
2022-12-31T08:41:06.343Z,19.30
2022-12-31T08:44:22.602Z,19.33
2022-12-31T08:47:15.557Z,34.08
2022-12-31T08:52:24.503Z,23.48
2022-12-31T08:54:51.543Z,21.08
2022-12-31T08:58:00.847Z,29.27
2022-12-31T09:00:52.987Z,21.27
2022-12-31T09:04:06.138Z,22.83
2022-12-31T09:07:03.278Z,21.60
2022-12-31T09:10:03.530Z,20.20
2022-12-31T09:13:13.130Z,21.40
2022-12-31T09:16:18.093Z,18.25
2022-12-31T09:19:04.971Z,22.10
2022-12-31T09:21:52.191Z,19.08
2022-12-31T09:24:39.502Z,17.63
2022-12-31T09:28:25.033Z,20.08
2022-12-31T09:31:19.087Z,16.95
2022-12-31T09:34:53.502Z,20.58
2022-12-31T09:37:50.632Z,18.58
2022-12-31T09:40:58.679Z,17.92
2022-12-31T09:44:34.928Z,16.90
2022-12-31T09:48:02.525Z,18.73
2022-12-31T09:51:01.575Z,19.05
2022-12-31T09:54:26.732Z,19.10
2022-12-31T09:57:40.674Z,17.67
2022-12-31T10:00:44.365Z,15.07
2022-12-31T10:04:05.387Z,15.77
2022-12-31T10:07:12.618Z,15.73
2022-12-31T10:10:40.932Z,15.27
2022-12-31T10:13:55.679Z,15.23
2022-12-31T10:17:20.099Z,14.73
2022-12-31T10:20:31.027Z,14.43
2022-12-31T10:23:52.144Z,14.57
2022-12-31T10:30:54.818Z,14.00
2022-12-31T10:34:09.936Z,13.00
2022-12-31T10:37:17.076Z,12.77
2022-12-31T10:40:21.568Z,14.00
2022-12-31T10:43:37.713Z,12.52
2022-12-31T10:46:43.519Z,14.18
2022-12-31T11:04:03.668Z,17.80
2022-12-31T11:07:21.677Z,13.07
2022-12-31T11:10:49.331Z,14.90
2022-12-31T11:14:10.145Z,14.93
2022-12-31T11:17:03.190Z,15.02
2022-12-31T11:20:46.561Z,13.25
2022-12-31T11:23:54.847Z,13.35
2022-12-31T11:27:19.881Z,13.68
2022-12-31T11:30:29.818Z,13.68
2022-12-31T11:33:58.000Z,13.35
2022-12-31T11:37:10.947Z,13.10
2022-12-31T11:40:39.788Z,15.73
2022-12-31T11:43:38.375Z,16.90
2022-12-31T11:47:14.309Z,18.52
2022-12-31T11:50:42.472Z,16.70
2022-12-31T11:53:57.624Z,13.00
2022-12-31T11:56:53.745Z,13.98
2022-12-31T11:59:40.795Z,13.52
2022-12-31T12:02:45.540Z,15.43
2022-12-31T12:05:35.147Z,16.83
2022-12-31T12:08:22.273Z,12.95
2022-12-31T12:11:21.452Z,14.30
2022-12-31T12:14:21.897Z,13.68
2022-12-31T12:17:32.079Z,14.32
2022-12-31T12:20:24.673Z,15.27
2022-12-31T12:23:18.027Z,15.32
2022-12-31T12:26:06.243Z,14.85
2022-12-31T12:28:53.180Z,14.93
2022-12-31T12:31:40.479Z,14.75
2022-12-31T12:34:41.967Z,16.52
2022-12-31T12:37:35.463Z,14.02
2022-12-31T12:40:28.353Z,14.63
2022-12-31T12:43:27.675Z,14.63
2022-12-31T12:46:29.702Z,16.50
2022-12-31T12:49:24.172Z,15.20
2022-12-31T12:52:48.425Z,16.45
2022-12-31T12:55:54.400Z,14.98
2022-12-31T12:59:19.443Z,14.65
2022-12-31T13:02:48.795Z,15.40
2022-12-31T13:06:22.564Z,14.32
2022-12-31T13:09:31.803Z,14.88
2022-12-31T13:12:48.956Z,14.07
2022-12-31T13:15:47.585Z,14.18
2022-12-31T13:22:38.251Z,14.88
2022-12-31T13:28:43.107Z,15.02
2022-12-31T13:31:34.472Z,16.42
2022-12-31T13:34:27.173Z,14.15
2022-12-31T13:37:37.951Z,14.30
2022-12-31T13:40:31.910Z,14.85
2022-12-31T13:43:30.117Z,13.68
2022-12-31T13:46:23.673Z,15.75
2022-12-31T13:49:37.738Z,13.25
2022-12-31T13:52:51.506Z,14.52
2022-12-31T13:55:42.711Z,15.68
2022-12-31T13:58:42.691Z,13.65
2022-12-31T14:01:43.771Z,15.07
2022-12-31T14:04:37.706Z,15.63
2022-12-31T14:07:37.638Z,16.30
2022-12-31T14:10:57.947Z,15.63
2022-12-31T14:14:24.930Z,17.17
2022-12-31T14:17:53.484Z,17.35
2022-12-31T14:21:10.180Z,13.98
2022-12-31T14:24:12.479Z,14.98
2022-12-31T14:27:04.227Z,15.47
2022-12-31T14:29:59.359Z,14.45
2022-12-31T14:33:12.208Z,17.35
2022-12-31T14:36:40.675Z,14.82
2022-12-31T14:39:54.337Z,15.38
2022-12-31T14:43:09.694Z,17.48
2022-12-31T14:46:12.498Z,16.75
2022-12-31T14:49:36.721Z,17.63
2022-12-31T14:52:29.223Z,17.48
2022-12-31T14:55:39.552Z,18.52
2022-12-31T14:58:35.393Z,19.25
2022-12-31T15:01:26.014Z,17.50
2022-12-31T15:04:15.797Z,18.77
2022-12-31T15:07:29.096Z,22.73
2022-12-31T15:10:21.916Z,21.60
2022-12-31T15:13:57.149Z,22.60
2022-12-31T15:16:57.340Z,18.77
2022-12-31T15:19:54.690Z,20.55
2022-12-31T15:22:50.455Z,20.42
2022-12-31T15:25:41.457Z,20.80
2022-12-31T15:28:40.053Z,19.15
2022-12-31T15:31:27.790Z,22.83
2022-12-31T15:34:33.754Z,22.65
2022-12-31T15:37:34.237Z,20.77
2022-12-31T15:40:25.022Z,21.23
2022-12-31T15:43:22.818Z,20.55
2022-12-31T15:46:17.174Z,20.58
2022-12-31T15:49:15.558Z,22.10
2022-12-31T15:52:29.460Z,21.45
2022-12-31T15:55:30.087Z,24.30
2022-12-31T15:58:20.957Z,20.92
2022-12-31T16:01:34.923Z,20.45
2022-12-31T16:04:25.592Z,20.83
2022-12-31T16:07:12.897Z,21.35
2022-12-31T16:10:02.675Z,20.70
2022-12-31T16:12:50.033Z,19.88
2022-12-31T16:15:37.027Z,21.48
2022-12-31T16:18:24.032Z,19.88
2022-12-31T16:21:35.429Z,19.52
2022-12-31T16:24:30.997Z,22.80
2022-12-31T16:27:18.009Z,22.35
2022-12-31T16:30:18.553Z,21.80
2022-12-31T16:33:11.672Z,20.90
2022-12-31T16:36:00.929Z,21.05
2022-12-31T16:38:48.254Z,22.08
2022-12-31T16:41:42.879Z,26.05
2022-12-31T16:44:30.578Z,24.70
2022-12-31T16:47:28.904Z,18.40
2022-12-31T16:50:20.023Z,20.30
2022-12-31T16:53:07.854Z,19.33
2022-12-31T16:56:16.310Z,19.48
2022-12-31T16:59:17.521Z,19.98
2022-12-31T17:02:24.927Z,20.88
2022-12-31T17:05:20.213Z,19.83
2022-12-31T17:08:28.648Z,23.48
2022-12-31T17:11:30.647Z,24.00
2022-12-31T17:14:29.134Z,22.00
2022-12-31T17:17:27.775Z,23.92
2022-12-31T17:20:26.194Z,21.98
2022-12-31T17:23:23.234Z,25.83
2022-12-31T17:26:22.056Z,23.00
2022-12-31T17:29:25.935Z,27.20
2022-12-31T17:32:37.427Z,25.67
2022-12-31T17:35:30.519Z,27.20
2022-12-31T17:38:43.544Z,30.63
2022-12-31T17:41:30.471Z,31.85
2022-12-31T17:44:21.070Z,32.30
2022-12-31T17:47:13.887Z,27.80
2022-12-31T17:50:19.145Z,43.70
2022-12-31T17:53:11.838Z,70.00
2022-12-31T17:56:03.110Z,58.20
2022-12-31T17:58:52.358Z,60.58
2022-12-31T18:01:39.498Z,57.35
2022-12-31T18:04:26.624Z,48.47
2022-12-31T18:07:13.567Z,44.63
2022-12-31T18:10:00.459Z,44.08
2022-12-31T18:12:48.888Z,52.47
2022-12-31T18:15:35.809Z,49.70
2022-12-31T18:18:28.114Z,47.05
2022-12-31T18:21:35.904Z,58.55
2022-12-31T18:24:26.002Z,35.70
2022-12-31T18:27:18.577Z,30.80
2022-12-31T18:30:06.872Z,35.70
2022-12-31T18:32:54.638Z,33.65
2022-12-31T18:36:17.065Z,39.35
2022-12-31T18:38:50.292Z,37.38
2022-12-31T18:41:46.572Z,27.98
2022-12-31T18:44:33.486Z,28.27
2022-12-31T18:47:23.841Z,26.40
2022-12-31T18:50:16.075Z,34.50
2022-12-31T18:53:03.057Z,34.03
2022-12-31T18:55:57.619Z,31.50
2022-12-31T18:58:45.330Z,31.90
2022-12-31T19:01:35.128Z,31.80
2022-12-31T19:04:27.673Z,36.67
2022-12-31T19:07:15.310Z,32.78
2022-12-31T19:10:02.236Z,34.42
2022-12-31T19:12:49.605Z,32.88
2022-12-31T19:15:46.517Z,33.97
2022-12-31T19:18:34.371Z,33.20
2022-12-31T19:21:22.873Z,36.55
2022-12-31T19:24:22.903Z,35.63
2022-12-31T19:27:09.904Z,35.25
2022-12-31T19:29:56.846Z,51.83
2022-12-31T19:32:43.916Z,48.88
2022-12-31T19:35:30.915Z,60.08
2022-12-31T19:38:25.925Z,57.92
2022-12-31T19:41:20.217Z,50.90
2022-12-31T19:44:14.198Z,51.25
2022-12-31T19:47:01.133Z,47.65
2022-12-31T19:49:48.023Z,47.83
2022-12-31T19:52:34.981Z,45.13
2022-12-31T19:55:25.046Z,44.08
2022-12-31T19:58:27.380Z,46.30
2022-12-31T20:01:20.974Z,43.73
2022-12-31T20:04:07.914Z,41.22
2022-12-31T20:06:54.777Z,41.10
2022-12-31T20:09:41.719Z,42.70
2022-12-31T20:12:28.613Z,41.63
2022-12-31T20:15:16.362Z,39.70
2022-12-31T20:18:03.240Z,36.53
2022-12-31T20:20:55.610Z,39.55
2022-12-31T20:23:43.099Z,44.08
2022-12-31T20:26:30.429Z,50.92
2022-12-31T20:29:17.394Z,48.65
2022-12-31T20:32:04.595Z,46.20
2022-12-31T20:34:51.510Z,43.47
2022-12-31T20:37:38.449Z,43.70
2022-12-31T20:40:25.312Z,40.45
2022-12-31T20:43:12.224Z,38.38
2022-12-31T20:45:59.174Z,42.67
2022-12-31T20:48:47.251Z,41.25
2022-12-31T20:51:35.156Z,43.78
2022-12-31T20:54:22.075Z,46.00
2022-12-31T20:57:08.934Z,55.97
2022-12-31T20:59:55.805Z,49.10
2022-12-31T21:02:44.321Z,46.95
2022-12-31T21:05:33.177Z,46.97
2022-12-31T21:08:21.219Z,51.15
2022-12-31T21:11:41.433Z,54.00
2022-12-31T21:14:28.367Z,48.28
2022-12-31T21:17:15.285Z,128.93
2022-12-31T21:20:02.264Z,86.50
2022-12-31T21:22:49.200Z,54.58
2022-12-31T21:25:36.098Z,50.55
2022-12-31T21:28:23.078Z,45.67
2022-12-31T21:31:13.022Z,44.35
2022-12-31T21:33:59.997Z,43.33
2022-12-31T21:36:46.914Z,43.05
2022-12-31T21:39:33.861Z,44.35
2022-12-31T21:42:20.761Z,43.38
2022-12-31T21:45:08.710Z,43.72
2022-12-31T21:48:17.733Z,40.67
2022-12-31T21:51:08.574Z,44.63
2022-12-31T21:53:56.068Z,51.20
2022-12-31T21:56:42.982Z,47.42
2022-12-31T22:00:03.161Z,46.70
2022-12-31T22:03:14.443Z,44.88
2022-12-31T22:06:13.097Z,62.60
2022-12-31T22:09:00.067Z,64.38
2022-12-31T22:11:47.725Z,55.42
2022-12-31T22:14:35.210Z,52.63
2022-12-31T22:17:22.119Z,59.88
2022-12-31T22:20:28.405Z,68.13
2022-12-31T22:23:16.136Z,73.15
2022-12-31T22:26:04.046Z,72.43
2022-12-31T22:28:51.156Z,65.68
2022-12-31T22:31:38.071Z,57.15
2022-12-31T22:34:25.904Z,48.10
2022-12-31T22:37:35.748Z,42.05
2022-12-31T22:40:19.807Z,43.75
2022-12-31T22:43:06.723Z,46.72
2022-12-31T22:45:53.643Z,41.28
2022-12-31T22:48:41.872Z,38.00
2022-12-31T22:51:55.826Z,36.35
2022-12-31T22:54:37.368Z,35.00
2022-12-31T22:57:24.281Z,40.13
2022-12-31T23:00:13.389Z,33.35
2022-12-31T23:03:00.328Z,32.15
2022-12-31T23:05:51.508Z,30.23
2022-12-31T23:08:38.449Z,32.40
2022-12-31T23:11:25.412Z,38.10
2022-12-31T23:14:35.870Z,42.78
2022-12-31T23:17:45.474Z,42.22
2022-12-31T23:20:51.138Z,89.55
2022-12-31T23:23:38.058Z,70.03
2022-12-31T23:26:24.961Z,68.75
2022-12-31T23:29:12.026Z,72.90
2022-12-31T23:31:59.186Z,76.60
2022-12-31T23:34:46.847Z,84.20
2022-12-31T23:37:33.833Z,87.45
2022-12-31T23:40:21.773Z,79.38
2022-12-31T23:43:17.960Z,102.57
2022-12-31T23:46:04.878Z,100.15
2022-12-31T23:48:51.960Z,105.53
2022-12-31T23:51:40.216Z,105.50
2022-12-31T23:54:28.201Z,98.50
2022-12-31T23:57:15.094Z,83.00
